createdAt,value
2023-02-02T00:01:34.133Z,10.68
2023-02-02T00:04:00.816Z,21.27
2023-02-02T00:06:29.202Z,12.82
2023-02-02T00:08:58.290Z,14.07
2023-02-02T00:11:28.575Z,7.47
2023-02-02T00:13:55.165Z,7.95
2023-02-02T00:16:31.083Z,16.38
2023-02-02T00:19:03.350Z,7.50
2023-02-02T00:21:29.884Z,17.30
2023-02-02T00:23:56.576Z,11.88
2023-02-02T00:26:23.059Z,14.82
2023-02-02T00:28:49.775Z,16.42
2023-02-02T00:31:16.326Z,20.63
2023-02-02T00:33:47.161Z,11.75
2023-02-02T00:36:14.455Z,18.08
2023-02-02T00:38:40.958Z,12.45
2023-02-02T00:41:07.842Z,21.13
2023-02-02T00:43:34.749Z,15.68
2023-02-02T00:46:01.919Z,12.90
2023-02-02T00:48:28.595Z,14.35
2023-02-02T00:50:55.328Z,16.35
2023-02-02T00:53:21.964Z,9.30
2023-02-02T00:55:48.903Z,15.52
2023-02-02T00:58:15.459Z,10.68
2023-02-02T01:00:41.953Z,12.77
2023-02-02T01:03:09.945Z,11.10
2023-02-02T01:05:36.912Z,14.38
2023-02-02T01:08:03.564Z,10.65
2023-02-02T01:10:30.258Z,15.43
2023-02-02T01:12:56.907Z,15.55
2023-02-02T01:15:23.685Z,10.25
2023-02-02T01:17:50.546Z,17.38
2023-02-02T01:20:20.184Z,18.10
2023-02-02T01:22:47.509Z,19.60
2023-02-02T01:25:14.424Z,14.10
2023-02-02T01:27:40.926Z,14.88
2023-02-02T01:30:08.194Z,15.07
2023-02-02T01:32:34.716Z,16.75
2023-02-02T01:35:01.197Z,16.05
2023-02-02T01:37:27.686Z,16.77
2023-02-02T01:39:54.167Z,23.08
2023-02-02T01:42:22.973Z,18.23
2023-02-02T01:44:54.052Z,16.52
2023-02-02T01:47:24.882Z,17.50
2023-02-02T01:49:52.146Z,13.55
2023-02-02T01:52:20.786Z,13.77
2023-02-02T01:54:54.773Z,18.08
2023-02-02T01:57:29.611Z,15.45
2023-02-02T01:59:58.865Z,14.43
2023-02-02T02:02:27.491Z,15.95
2023-02-02T02:04:55.343Z,25.10
2023-02-02T02:07:22.662Z,17.52
2023-02-02T02:09:49.296Z,21.23
2023-02-02T02:12:16.809Z,14.60
2023-02-02T02:15:05.830Z,10.73
2023-02-02T02:17:51.217Z,16.48
2023-02-02T02:20:58.305Z,17.58
2023-02-02T02:24:11.883Z,9.60
2023-02-02T02:27:03.095Z,18.52
2023-02-02T02:30:02.683Z,14.18
2023-02-02T02:32:52.456Z,12.38
2023-02-02T02:35:50.449Z,8.70
2023-02-02T02:38:26.206Z,14.32
2023-02-02T02:41:03.270Z,16.75
2023-02-02T02:43:33.992Z,12.80
2023-02-02T02:46:00.892Z,12.20
2023-02-02T02:48:29.441Z,16.30
2023-02-02T02:51:09.510Z,7.53
2023-02-02T02:53:37.698Z,10.07
2023-02-02T02:56:18.855Z,13.40
2023-02-02T02:59:11.044Z,13.63
2023-02-02T03:01:55.677Z,12.65
2023-02-02T03:04:29.161Z,11.77
2023-02-02T03:07:04.045Z,9.20
2023-02-02T03:09:37.265Z,13.23
2023-02-02T03:12:03.835Z,18.95
2023-02-02T03:14:35.238Z,11.50
2023-02-02T03:17:02.919Z,11.05
2023-02-02T03:19:29.429Z,11.30
2023-02-02T03:21:55.875Z,12.55
2023-02-02T03:24:22.602Z,11.50
2023-02-02T03:26:51.285Z,8.25
2023-02-02T03:29:18.091Z,15.63
2023-02-02T03:31:45.058Z,12.85
2023-02-02T03:34:11.777Z,11.70
2023-02-02T03:36:38.521Z,10.88
2023-02-02T03:39:05.043Z,6.75
2023-02-02T03:41:31.842Z,11.13
2023-02-02T03:43:58.265Z,9.60
2023-02-02T03:46:24.878Z,13.55
2023-02-02T03:48:51.407Z,10.77
2023-02-02T03:51:18.192Z,16.30
2023-02-02T03:53:44.697Z,10.35
2023-02-02T03:56:11.307Z,11.60
2023-02-02T03:58:37.979Z,15.05
2023-02-02T04:01:06.594Z,8.57
2023-02-02T04:03:34.070Z,9.95
2023-02-02T04:06:01.798Z,11.60
2023-02-02T04:08:28.949Z,12.43
2023-02-02T04:10:55.573Z,3.33
2023-02-02T04:13:22.161Z,12.48
2023-02-02T04:15:48.691Z,13.63
2023-02-02T04:18:15.200Z,10.57
2023-02-02T04:20:41.698Z,9.52
2023-02-02T04:23:08.170Z,13.15
2023-02-02T04:25:34.652Z,9.80
2023-02-02T04:28:01.127Z,11.60
2023-02-02T04:30:27.727Z,6.53
2023-02-02T04:32:56.153Z,8.27
2023-02-02T04:35:22.826Z,11.73
2023-02-02T04:37:49.654Z,8.70
2023-02-02T04:40:16.202Z,9.95
2023-02-02T04:42:42.769Z,7.95
2023-02-02T04:45:09.735Z,10.45
2023-02-02T04:47:37.704Z,7.93
2023-02-02T04:50:04.655Z,14.27
2023-02-02T04:52:37.697Z,9.70
2023-02-02T04:55:04.353Z,15.68
2023-02-02T04:57:32.393Z,5.72
2023-02-02T04:59:58.924Z,11.80
2023-02-02T05:02:25.544Z,14.48
2023-02-02T05:04:52.248Z,13.05
2023-02-02T05:07:18.749Z,8.23
2023-02-02T05:09:45.208Z,10.45
2023-02-02T05:12:11.851Z,12.75
2023-02-02T05:14:38.394Z,10.50
2023-02-02T05:17:04.899Z,9.45
2023-02-02T05:19:31.480Z,11.20
2023-02-02T05:21:57.960Z,13.45
2023-02-02T05:24:24.398Z,9.52
2023-02-02T05:26:50.946Z,8.25
2023-02-02T05:29:17.576Z,8.60
2023-02-02T05:31:44.191Z,10.13
2023-02-02T05:34:11.686Z,6.75
2023-02-02T05:36:38.459Z,12.25
2023-02-02T05:39:05.689Z,15.98
2023-02-02T05:41:32.306Z,9.45
2023-02-02T05:44:00.468Z,10.15
2023-02-02T05:46:27.087Z,9.85
2023-02-02T05:48:53.600Z,17.58
2023-02-02T05:51:41.662Z,13.02
2023-02-02T05:54:08.203Z,10.45
2023-02-02T05:56:34.862Z,9.63
2023-02-02T05:59:01.584Z,10.05
2023-02-02T06:01:28.613Z,9.80
2023-02-02T06:04:04.457Z,6.30
2023-02-02T06:06:40.576Z,9.73
2023-02-02T06:09:09.630Z,9.80
2023-02-02T06:11:36.580Z,8.55
2023-02-02T06:14:20.853Z,10.07
2023-02-02T06:16:54.825Z,8.10
2023-02-02T06:20:39.637Z,11.90
2023-02-02T06:23:29.127Z,12.45
2023-02-02T06:29:27.930Z,10.45
2023-02-02T06:32:01.485Z,9.02
2023-02-02T06:34:28.135Z,13.27
2023-02-02T06:37:06.074Z,14.35
2023-02-02T06:39:36.272Z,11.95
2023-02-02T06:42:20.437Z,9.88
2023-02-02T06:44:47.639Z,7.95
2023-02-02T06:47:15.360Z,11.88
2023-02-02T06:49:42.126Z,9.02
2023-02-02T06:52:08.715Z,9.23
2023-02-02T06:54:35.745Z,10.75
2023-02-02T06:57:02.336Z,9.05
2023-02-02T06:59:29.019Z,6.85
2023-02-02T07:01:56.280Z,10.43
2023-02-02T07:04:23.062Z,5.38
2023-02-02T07:06:55.242Z,13.43
2023-02-02T07:09:23.830Z,12.93
2023-02-02T07:11:50.367Z,11.27
2023-02-02T07:14:16.915Z,11.77
2023-02-02T07:16:43.593Z,9.43
2023-02-02T07:19:10.534Z,10.57
2023-02-02T07:21:37.193Z,8.55
2023-02-02T07:24:07.884Z,12.15
2023-02-02T07:26:36.220Z,12.90
2023-02-02T07:29:04.740Z,11.35
2023-02-02T07:31:36.584Z,9.13
2023-02-02T07:34:03.666Z,5.68
2023-02-02T07:36:47.534Z,13.40
2023-02-02T07:39:14.354Z,18.98
2023-02-02T07:41:41.017Z,12.15
2023-02-02T07:44:12.782Z,9.40
2023-02-02T07:46:42.324Z,9.65
2023-02-02T07:49:16.016Z,12.85
2023-02-02T07:51:47.568Z,10.82
2023-02-02T07:56:42.437Z,12.10
2023-02-02T07:59:11.049Z,9.02
2023-02-02T08:01:37.645Z,10.13
2023-02-02T08:04:04.847Z,11.25
2023-02-02T08:06:37.041Z,17.83
2023-02-02T08:09:07.795Z,14.02
2023-02-02T08:11:35.785Z,17.38
2023-02-02T08:14:03.112Z,12.05
2023-02-02T08:16:32.046Z,14.23
2023-02-02T08:19:06.220Z,12.13
2023-02-02T08:21:34.742Z,11.70
2023-02-02T08:24:05.297Z,12.80
2023-02-02T08:26:32.371Z,15.68
2023-02-02T08:29:01.830Z,19.88
2023-02-02T08:31:36.318Z,15.60
2023-02-02T08:34:11.594Z,11.63
2023-02-02T08:36:40.615Z,15.65
2023-02-02T08:39:09.355Z,10.68
2023-02-02T08:41:39.672Z,7.38
2023-02-02T08:44:11.617Z,11.23
2023-02-02T08:46:38.472Z,12.70
2023-02-02T08:49:05.538Z,9.43
2023-02-02T08:51:32.368Z,15.18
2023-02-02T08:53:58.961Z,11.93
2023-02-02T08:56:25.819Z,12.50
2023-02-02T08:58:55.103Z,17.40
2023-02-02T09:01:25.079Z,12.30
2023-02-02T09:04:00.480Z,6.35
2023-02-02T09:06:33.339Z,10.68
2023-02-02T09:09:00.203Z,11.60
2023-02-02T09:11:27.110Z,11.82
2023-02-02T09:18:08.560Z,11.15
2023-02-02T09:20:35.237Z,10.75
2023-02-02T09:23:01.713Z,11.43
2023-02-02T09:25:28.662Z,14.43
2023-02-02T09:27:55.250Z,13.00
2023-02-02T09:30:22.072Z,10.38
2023-02-02T09:32:50.727Z,6.05
2023-02-02T09:35:17.368Z,8.85
2023-02-02T09:37:45.658Z,8.68
2023-02-02T09:40:20.667Z,13.60
2023-02-02T09:43:23.312Z,15.00
2023-02-02T09:46:25.908Z,13.68
2023-02-02T09:49:01.401Z,6.82
2023-02-02T09:51:36.346Z,12.65
2023-02-02T09:54:32.417Z,6.28
2023-02-02T09:57:01.802Z,11.32
2023-02-02T09:59:34.889Z,10.15
2023-02-02T10:02:16.338Z,7.32
2023-02-02T10:04:47.132Z,7.45
2023-02-02T10:07:23.677Z,7.68
2023-02-02T10:09:54.657Z,9.07
2023-02-02T10:12:36.402Z,9.15
2023-02-02T10:15:13.767Z,7.88
2023-02-02T10:18:06.269Z,7.13
2023-02-02T10:20:57.449Z,12.00
2023-02-02T10:23:37.147Z,8.32
2023-02-02T10:26:37.126Z,11.52
2023-02-02T10:29:17.192Z,10.48
2023-02-02T10:32:14.211Z,7.55
2023-02-02T10:35:00.325Z,8.60
2023-02-02T10:38:24.123Z,7.63
2023-02-02T10:41:05.036Z,6.03
2023-02-02T10:44:09.449Z,8.30
2023-02-02T10:46:41.164Z,8.52
2023-02-02T10:52:04.739Z,9.20
2023-02-02T10:54:56.441Z,8.30
2023-02-02T10:57:42.129Z,8.57
2023-02-02T11:00:47.546Z,6.80
2023-02-02T11:03:20.961Z,9.20
2023-02-02T11:06:06.702Z,7.05
2023-02-02T11:08:35.940Z,7.20
2023-02-02T11:11:16.573Z,11.50
2023-02-02T11:14:01.276Z,4.25
2023-02-02T11:16:42.272Z,4.43
2023-02-02T11:19:19.790Z,4.43
2023-02-02T11:21:51.437Z,9.38
2023-02-02T11:27:04.904Z,6.03
2023-02-02T11:29:39.231Z,6.57
2023-02-02T11:32:30.172Z,8.77
2023-02-02T11:35:03.104Z,9.23
2023-02-02T11:37:31.120Z,13.20
2023-02-02T11:40:31.987Z,7.15
2023-02-02T11:43:02.999Z,7.88
2023-02-02T11:45:41.945Z,10.48
2023-02-02T11:48:16.440Z,8.48
2023-02-02T11:50:53.988Z,11.70
2023-02-02T11:53:30.477Z,8.23
2023-02-02T11:56:01.468Z,11.43
2023-02-02T11:58:56.868Z,9.85
2023-02-02T12:01:29.258Z,12.63
2023-02-02T12:04:04.665Z,9.55
2023-02-02T12:06:39.064Z,8.13
2023-02-02T12:09:18.984Z,5.60
2023-02-02T12:12:19.740Z,6.95
2023-02-02T12:15:04.927Z,7.57
2023-02-02T12:17:47.394Z,6.70
2023-02-02T12:20:36.928Z,4.70
2023-02-02T12:23:15.431Z,4.72
2023-02-02T12:26:28.693Z,6.97
2023-02-02T12:29:31.255Z,5.80
2023-02-02T12:32:22.787Z,7.47
2023-02-02T12:35:17.404Z,6.82
2023-02-02T12:38:07.169Z,6.22
2023-02-02T12:41:31.406Z,13.57
2023-02-02T12:44:22.610Z,6.15
2023-02-02T12:47:00.985Z,9.65
2023-02-02T12:49:49.373Z,5.00
2023-02-02T12:52:38.503Z,6.57
2023-02-02T12:55:08.385Z,10.23
2023-02-02T12:57:49.557Z,8.80
2023-02-02T13:00:41.025Z,6.70
2023-02-02T13:03:36.970Z,6.53
2023-02-02T13:06:25.188Z,6.43
2023-02-02T13:09:10.155Z,3.33
2023-02-02T13:12:01.320Z,9.18
2023-02-02T13:14:31.884Z,5.85
2023-02-02T13:17:08.575Z,6.13
2023-02-02T13:19:48.359Z,6.30
2023-02-02T13:22:20.480Z,8.85
2023-02-02T13:24:49.721Z,5.80
2023-02-02T13:27:20.033Z,5.05
2023-02-02T13:29:57.455Z,8.20
2023-02-02T13:32:33.524Z,6.75
2023-02-02T13:35:20.493Z,8.13
2023-02-02T13:38:07.602Z,7.72
2023-02-02T13:40:35.574Z,9.80
2023-02-02T13:43:43.514Z,7.05
2023-02-02T13:46:22.574Z,5.30
2023-02-02T13:49:07.447Z,5.97
2023-02-02T13:51:42.500Z,7.38
2023-02-02T13:54:53.888Z,10.55
2023-02-02T13:57:53.512Z,7.78
2023-02-02T14:00:27.071Z,9.35
2023-02-02T14:02:57.411Z,4.63
2023-02-02T14:05:40.562Z,5.28
2023-02-02T14:08:16.165Z,6.13
2023-02-02T14:10:56.165Z,4.75
2023-02-02T14:13:45.260Z,5.38
2023-02-02T14:16:22.321Z,9.85
2023-02-02T14:18:49.738Z,6.32
2023-02-02T14:21:31.762Z,6.95
2023-02-02T14:24:26.430Z,4.75
2023-02-02T14:26:58.306Z,8.02
2023-02-02T14:29:36.018Z,4.68
2023-02-02T14:32:12.597Z,3.45
2023-02-02T14:34:41.273Z,4.22
2023-02-02T14:37:30.092Z,4.82
2023-02-02T14:40:08.835Z,4.70
2023-02-02T14:43:13.459Z,5.30
2023-02-02T14:45:41.816Z,4.95
2023-02-02T14:48:21.700Z,4.20
2023-02-02T14:50:52.839Z,4.05
2023-02-02T14:53:25.724Z,4.30
2023-02-02T14:55:55.780Z,6.75
2023-02-02T14:58:27.826Z,3.75
2023-02-02T15:01:06.352Z,4.78
2023-02-02T15:03:37.440Z,4.63
2023-02-02T15:06:34.606Z,4.97
2023-02-02T15:09:27.165Z,4.72
2023-02-02T15:12:02.794Z,4.40
2023-02-02T15:14:35.491Z,4.20
2023-02-02T15:17:07.326Z,5.45
2023-02-02T15:19:45.026Z,7.95
2023-02-02T15:22:29.734Z,4.03
2023-02-02T15:24:59.523Z,4.15
2023-02-02T15:27:26.809Z,5.82
2023-02-02T15:29:58.410Z,2.67
2023-02-02T15:32:28.613Z,5.05
2023-02-02T15:35:01.687Z,4.60
2023-02-02T15:37:40.167Z,5.80
2023-02-02T15:40:21.699Z,2.47
2023-02-02T15:43:01.786Z,5.07
2023-02-02T15:45:28.210Z,3.05
2023-02-02T15:47:56.333Z,2.65
2023-02-02T15:50:22.898Z,7.75
2023-02-02T15:52:51.920Z,4.72
2023-02-02T15:55:42.868Z,5.95
2023-02-02T15:58:32.366Z,3.00
2023-02-02T16:01:06.519Z,4.18
2023-02-02T16:03:42.048Z,2.85
2023-02-02T16:06:09.598Z,3.42
2023-02-02T16:08:38.917Z,4.63
2023-02-02T16:11:11.917Z,4.72
2023-02-02T16:13:40.416Z,6.40
2023-02-02T16:16:24.999Z,4.07
2023-02-02T16:19:26.503Z,3.72
2023-02-02T16:22:01.824Z,2.83
2023-02-02T16:24:36.116Z,3.47
2023-02-02T16:27:07.046Z,4.50
2023-02-02T16:29:34.598Z,4.00
2023-02-02T16:32:04.461Z,5.35
2023-02-02T16:34:40.363Z,4.55
2023-02-02T16:37:17.132Z,3.95
2023-02-02T16:39:43.873Z,5.47
2023-02-02T16:42:23.925Z,6.80
2023-02-02T16:44:50.554Z,4.93
2023-02-02T16:47:26.123Z,5.88
2023-02-02T16:50:18.204Z,3.90
2023-02-02T16:53:00.430Z,4.90
2023-02-02T16:55:47.502Z,3.95
2023-02-02T16:58:19.586Z,6.85
2023-02-02T17:01:13.629Z,5.50
2023-02-02T17:03:48.995Z,3.97
2023-02-02T17:06:15.720Z,5.28
2023-02-02T17:08:42.233Z,5.38
2023-02-02T17:11:26.648Z,5.93
2023-02-02T17:13:55.267Z,8.55
2023-02-02T17:16:24.370Z,10.60
2023-02-02T17:18:51.373Z,14.40
2023-02-02T17:21:24.523Z,7.80
2023-02-02T17:23:55.262Z,9.63
2023-02-02T17:26:21.977Z,10.45
2023-02-02T17:28:50.244Z,10.40
2023-02-02T17:31:17.030Z,10.68
2023-02-02T17:33:43.700Z,9.13
2023-02-02T17:36:13.263Z,5.88
2023-02-02T17:38:39.973Z,5.25
2023-02-02T17:41:07.324Z,8.98
2023-02-02T17:43:33.948Z,3.95
2023-02-02T17:46:02.246Z,8.45
2023-02-02T17:48:28.786Z,6.38
2023-02-02T17:50:55.271Z,5.57
2023-02-02T17:53:22.919Z,7.60
2023-02-02T17:55:50.121Z,5.43
2023-02-02T17:58:26.899Z,7.22
2023-02-02T18:00:56.275Z,4.25
2023-02-02T18:03:26.396Z,6.82
2023-02-02T18:05:53.215Z,4.07
2023-02-02T18:08:19.788Z,4.78
2023-02-02T18:10:46.451Z,5.75
2023-02-02T18:13:19.363Z,4.35
2023-02-02T18:15:46.264Z,6.85
2023-02-02T18:18:12.931Z,4.57
2023-02-02T18:20:43.407Z,4.78
2023-02-02T18:23:10.577Z,4.53
2023-02-02T18:25:37.841Z,8.25
2023-02-02T18:28:04.306Z,5.05
2023-02-02T18:30:30.887Z,4.85
2023-02-02T18:32:57.551Z,4.75
2023-02-02T18:35:25.353Z,7.72
2023-02-02T18:37:51.973Z,8.32
2023-02-02T18:40:18.408Z,6.35
2023-02-02T18:42:44.912Z,8.75
2023-02-02T18:45:11.662Z,7.03
2023-02-02T18:47:40.388Z,7.30
2023-02-02T18:50:08.224Z,9.73
2023-02-02T18:52:35.350Z,8.63
2023-02-02T18:55:01.998Z,6.40
2023-02-02T18:57:32.043Z,10.80
2023-02-02T18:59:58.517Z,7.40
2023-02-02T19:02:25.886Z,6.45
2023-02-02T19:05:11.117Z,5.65
2023-02-02T19:08:00.822Z,8.45
2023-02-02T19:10:28.348Z,5.60
2023-02-02T19:13:11.231Z,12.93
2023-02-02T19:15:39.306Z,6.13
2023-02-02T19:18:13.006Z,9.18
2023-02-02T19:20:47.001Z,4.70
2023-02-02T19:23:18.218Z,8.40
2023-02-02T19:25:50.742Z,8.02
2023-02-02T19:28:29.724Z,9.68
2023-02-02T19:31:02.143Z,7.10
2023-02-02T19:33:50.191Z,6.63
2023-02-02T19:36:22.077Z,9.45
2023-02-02T19:41:23.084Z,10.73
2023-02-02T19:43:54.823Z,8.20
2023-02-02T19:46:24.177Z,6.10
2023-02-02T19:49:11.629Z,7.97
2023-02-02T19:51:42.263Z,6.22
2023-02-02T19:54:49.145Z,9.88
2023-02-02T19:57:41.915Z,5.32
2023-02-02T20:00:31.098Z,8.48
2023-02-02T20:03:10.539Z,7.22
2023-02-02T20:05:44.695Z,6.85
2023-02-02T20:08:35.652Z,5.22
2023-02-02T20:11:28.484Z,5.90
2023-02-02T20:13:55.191Z,7.55
2023-02-02T20:16:24.680Z,5.60
2023-02-02T20:18:54.227Z,6.88
2023-02-02T20:21:35.421Z,6.50
2023-02-02T20:24:04.419Z,7.15
2023-02-02T20:26:36.580Z,7.38
2023-02-02T20:29:19.743Z,5.75
2023-02-02T20:31:47.318Z,6.60
2023-02-02T20:34:24.917Z,13.57
2023-02-02T20:36:53.573Z,12.43
2023-02-02T20:39:26.333Z,14.35
2023-02-02T20:41:57.238Z,10.85
2023-02-02T20:44:34.868Z,15.20
2023-02-02T20:47:02.906Z,12.82
2023-02-02T20:49:32.006Z,13.45
2023-02-02T20:52:01.775Z,11.50
2023-02-02T20:54:31.695Z,10.05
2023-02-02T20:56:58.556Z,8.77
2023-02-02T20:59:25.201Z,13.23
2023-02-02T21:01:52.900Z,14.07
2023-02-02T21:04:20.068Z,6.50
2023-02-02T21:06:49.777Z,12.18
2023-02-02T21:09:17.626Z,6.45
2023-02-02T21:11:46.037Z,10.73
2023-02-02T21:14:13.116Z,8.70
2023-02-02T21:16:40.398Z,8.23
2023-02-02T21:19:07.063Z,8.68
2023-02-02T21:21:33.760Z,9.43
2023-02-02T21:24:01.124Z,10.48
2023-02-02T21:26:31.012Z,10.02
2023-02-02T21:28:58.441Z,7.47
2023-02-02T21:31:26.566Z,10.05
2023-02-02T21:34:01.423Z,11.05
2023-02-02T21:36:34.493Z,9.27
2023-02-02T21:39:22.883Z,9.35
2023-02-02T21:41:50.736Z,11.15
2023-02-02T21:44:22.556Z,10.32
2023-02-02T21:46:50.955Z,11.48
2023-02-02T21:49:22.285Z,11.57
2023-02-02T21:51:49.550Z,10.05
2023-02-02T21:54:26.897Z,13.13
2023-02-02T21:56:54.384Z,8.30
2023-02-02T21:59:23.696Z,11.13
2023-02-02T22:01:51.813Z,13.23
2023-02-02T22:04:28.847Z,10.20
2023-02-02T22:07:00.568Z,15.48
2023-02-02T22:09:29.742Z,11.60
2023-02-02T22:12:02.697Z,9.75
2023-02-02T22:14:44.485Z,13.82
2023-02-02T22:17:22.311Z,10.25
2023-02-02T22:19:53.294Z,9.25
2023-02-02T22:22:26.382Z,14.35
2023-02-02T22:25:16.617Z,8.32
2023-02-02T22:27:50.217Z,9.52
2023-02-02T22:30:27.893Z,10.07
2023-02-02T22:32:55.369Z,9.30
2023-02-02T22:35:22.366Z,13.63
2023-02-02T22:37:49.183Z,10.93
2023-02-02T22:40:16.656Z,10.98
2023-02-02T22:42:46.242Z,10.52
2023-02-02T22:45:12.788Z,11.77
2023-02-02T22:47:39.357Z,11.02
2023-02-02T22:50:06.369Z,8.98
2023-02-02T22:52:36.359Z,13.27
2023-02-02T22:55:05.400Z,22.40
2023-02-02T22:57:33.415Z,10.75
2023-02-02T22:59:59.952Z,15.70
2023-02-02T23:02:26.742Z,12.85
2023-02-02T23:04:53.284Z,12.95
2023-02-02T23:07:20.008Z,12.20
2023-02-02T23:09:46.536Z,8.65
2023-02-02T23:12:18.476Z,11.63
2023-02-02T23:14:45.126Z,11.93
2023-02-02T23:17:11.667Z,9.98
2023-02-02T23:19:41.250Z,14.93
2023-02-02T23:22:10.136Z,13.00
2023-02-02T23:24:38.176Z,10.02
2023-02-02T23:27:08.605Z,11.25
2023-02-02T23:29:45.010Z,10.93
2023-02-02T23:32:14.829Z,9.32
2023-02-02T23:34:41.502Z,15.82
2023-02-02T23:37:08.275Z,11.82
2023-02-02T23:39:34.981Z,10.52
2023-02-02T23:42:01.750Z,10.48
2023-02-02T23:44:28.357Z,14.15
2023-02-02T23:46:55.372Z,9.38
2023-02-02T23:49:22.536Z,7.60
2023-02-02T23:51:49.254Z,8.63
2023-02-02T23:54:17.260Z,8.02
2023-02-02T23:56:49.519Z,9.90
2023-02-02T23:59:16.544Z,11.68
